createdAt,value
2023-02-14T00:01:46.689Z,68.04
2023-02-14T00:04:20.904Z,67.81
2023-02-14T00:06:55.512Z,67.99
2023-02-14T00:09:32.486Z,68.10
2023-02-14T00:12:07.780Z,67.64
2023-02-14T00:14:58.050Z,67.56
2023-02-14T00:17:29.688Z,67.33
2023-02-14T00:20:01.313Z,67.49
2023-02-14T00:22:33.331Z,67.75
2023-02-14T00:25:05.286Z,67.66
2023-02-14T00:27:37.958Z,67.65
2023-02-14T00:30:12.816Z,67.41
2023-02-14T00:32:44.667Z,67.29
2023-02-14T00:35:17.749Z,67.63
2023-02-14T00:37:55.134Z,67.39
2023-02-14T00:40:28.905Z,66.89
2023-02-14T00:43:04.215Z,66.65
2023-02-14T00:45:35.978Z,67.37
2023-02-14T00:48:07.737Z,67.14
2023-02-14T00:50:40.632Z,67.19
2023-02-14T00:53:13.842Z,66.85
2023-02-14T00:55:47.182Z,66.91
2023-02-14T00:58:19.925Z,67.03
2023-02-14T01:00:53.680Z,66.62
2023-02-14T01:03:29.590Z,67.22
2023-02-14T01:06:02.093Z,67.31
2023-02-14T01:08:35.312Z,67.51
2023-02-14T01:11:08.679Z,68.11
2023-02-14T01:13:41.350Z,67.77
2023-02-14T01:16:16.093Z,67.91
2023-02-14T01:18:48.479Z,67.68
2023-02-14T01:21:24.343Z,67.74
2023-02-14T01:23:58.117Z,67.42
2023-02-14T01:26:30.347Z,67.40
2023-02-14T01:29:07.643Z,67.28
2023-02-14T01:31:39.677Z,67.49
2023-02-14T01:34:11.419Z,67.40
2023-02-14T01:36:49.192Z,67.89
2023-02-14T01:39:21.072Z,67.62
2023-02-14T01:41:55.757Z,67.96
2023-02-14T01:44:33.410Z,68.10
2023-02-14T01:47:10.609Z,67.95
2023-02-14T01:49:49.599Z,67.67
2023-02-14T01:52:26.228Z,67.66
2023-02-14T01:55:02.490Z,68.14
2023-02-14T01:57:40.292Z,68.82
2023-02-14T02:00:32.058Z,68.45
2023-02-14T02:03:05.824Z,67.93
2023-02-14T02:05:40.332Z,68.26
2023-02-14T02:08:12.330Z,68.22
2023-02-14T02:10:43.999Z,68.24
2023-02-14T02:13:20.933Z,68.34
2023-02-14T02:16:17.546Z,68.05
2023-02-14T02:19:08.744Z,68.34
2023-02-14T02:22:11.284Z,67.86
2023-02-14T02:25:24.459Z,67.53
2023-02-14T02:27:58.744Z,67.61
2023-02-14T02:30:50.516Z,67.19
2023-02-14T02:33:40.956Z,67.33
2023-02-14T02:36:12.897Z,67.27
2023-02-14T02:39:23.043Z,66.84
2023-02-14T02:42:04.102Z,67.20
2023-02-14T02:44:58.008Z,67.56
2023-02-14T02:47:44.644Z,67.91
2023-02-14T02:50:46.748Z,67.82
2023-02-14T02:53:19.428Z,67.74
2023-02-14T02:56:30.568Z,67.78
2023-02-14T02:59:18.828Z,68.83
2023-02-14T03:02:26.535Z,68.75
2023-02-14T03:05:04.463Z,68.30
2023-02-14T03:07:41.665Z,68.28
2023-02-14T03:10:30.194Z,68.43
2023-02-14T03:13:14.402Z,68.05
2023-02-14T03:15:54.124Z,67.54
2023-02-14T03:19:07.223Z,68.92
2023-02-14T03:21:55.920Z,69.24
2023-02-14T03:24:37.866Z,69.03
2023-02-14T03:27:29.965Z,69.11
2023-02-14T03:30:14.265Z,68.84
2023-02-14T03:32:58.374Z,69.54
2023-02-14T03:35:39.178Z,69.34
2023-02-14T03:38:29.480Z,69.98
2023-02-14T03:41:05.277Z,69.00
2023-02-14T03:43:43.859Z,69.37
2023-02-14T03:46:45.478Z,69.07
2023-02-14T03:49:26.894Z,69.08
2023-02-14T03:52:02.857Z,68.58
2023-02-14T03:54:35.714Z,68.58
2023-02-14T03:57:45.980Z,68.00
2023-02-14T04:00:19.843Z,68.30
2023-02-14T04:02:59.330Z,68.97
2023-02-14T04:05:31.539Z,68.59
2023-02-14T04:08:03.195Z,68.10
2023-02-14T04:10:34.929Z,68.27
2023-02-14T04:13:08.721Z,68.00
2023-02-14T04:15:40.406Z,67.92
2023-02-14T04:18:34.734Z,68.08
2023-02-14T04:21:11.372Z,68.42
2023-02-14T04:23:43.316Z,68.44
2023-02-14T04:26:15.070Z,68.81
2023-02-14T04:28:49.416Z,69.51
2023-02-14T04:31:21.252Z,69.14
2023-02-14T04:33:55.069Z,68.91
2023-02-14T04:36:26.841Z,68.76
2023-02-14T04:38:58.630Z,68.72
2023-02-14T04:41:30.523Z,68.24
2023-02-14T04:44:05.692Z,68.12
2023-02-14T04:46:40.453Z,68.59
2023-02-14T04:49:12.187Z,68.33
2023-02-14T04:51:44.580Z,68.37
2023-02-14T04:54:23.754Z,68.19
2023-02-14T04:56:58.458Z,68.95
2023-02-14T04:59:30.039Z,69.13
2023-02-14T05:02:01.777Z,68.57
2023-02-14T05:04:33.555Z,68.68
2023-02-14T05:07:06.284Z,69.96
2023-02-14T05:09:40.357Z,69.42
2023-02-14T05:12:12.047Z,69.71
2023-02-14T05:14:43.782Z,69.91
2023-02-14T05:17:15.520Z,69.79
2023-02-14T05:19:47.227Z,69.21
2023-02-14T05:22:23.153Z,69.29
2023-02-14T05:25:20.400Z,69.44
2023-02-14T05:27:52.053Z,68.87
2023-02-14T05:30:28.132Z,69.39
2023-02-14T05:33:02.180Z,68.96
2023-02-14T05:35:37.024Z,69.30
2023-02-14T05:38:15.469Z,69.08
2023-02-14T05:40:47.255Z,68.93
2023-02-14T05:43:18.995Z,68.91
2023-02-14T05:45:50.919Z,68.96
2023-02-14T05:48:23.001Z,69.14
2023-02-14T05:50:54.845Z,69.20
2023-02-14T05:53:26.505Z,69.31
2023-02-14T05:55:58.229Z,68.97
2023-02-14T05:58:33.239Z,69.12
2023-02-14T06:01:05.398Z,69.05
2023-02-14T06:03:37.105Z,69.03
2023-02-14T06:06:11.875Z,69.59
2023-02-14T06:08:43.632Z,69.21
2023-02-14T06:11:15.346Z,69.33
2023-02-14T06:13:47.354Z,69.70
2023-02-14T06:16:21.991Z,69.66
2023-02-14T06:18:53.831Z,69.74
2023-02-14T06:21:25.669Z,69.52
2023-02-14T06:24:00.470Z,70.06
2023-02-14T06:26:32.959Z,69.30
2023-02-14T06:29:07.314Z,69.16
2023-02-14T06:31:40.839Z,69.07
2023-02-14T06:34:13.946Z,69.21
2023-02-14T06:36:46.808Z,69.05
2023-02-14T06:39:21.616Z,69.35
2023-02-14T06:41:53.182Z,69.24
2023-02-14T06:44:24.877Z,69.10
2023-02-14T06:47:01.891Z,69.02
2023-02-14T06:49:33.573Z,68.91
2023-02-14T06:52:06.513Z,69.29
2023-02-14T06:54:44.533Z,69.21
2023-02-14T06:57:16.267Z,69.03
2023-02-14T06:59:48.096Z,69.78
2023-02-14T07:02:25.068Z,69.52
2023-02-14T07:04:56.938Z,69.55
2023-02-14T07:07:31.002Z,69.37
2023-02-14T07:10:04.405Z,69.29
2023-02-14T07:12:36.623Z,69.14
2023-02-14T07:15:11.077Z,69.23
2023-02-14T07:17:43.010Z,69.52
2023-02-14T07:20:15.830Z,69.26
2023-02-14T07:22:47.747Z,69.56
2023-02-14T07:25:20.648Z,69.19
2023-02-14T07:27:52.314Z,69.02
2023-02-14T07:30:24.124Z,69.17
2023-02-14T07:32:57.489Z,69.03
2023-02-14T07:35:29.196Z,68.75
2023-02-14T07:38:03.455Z,68.95
2023-02-14T07:40:35.166Z,69.16
2023-02-14T07:43:10.204Z,69.13
2023-02-14T07:45:42.088Z,68.70
2023-02-14T07:48:16.451Z,69.07
2023-02-14T07:50:48.743Z,68.93
2023-02-14T07:53:24.554Z,68.79
2023-02-14T07:55:59.088Z,68.73
2023-02-14T07:58:30.809Z,68.76
2023-02-14T08:01:02.724Z,68.97
2023-02-14T08:03:35.087Z,68.70
2023-02-14T08:06:06.844Z,68.30
2023-02-14T08:08:38.578Z,68.98
2023-02-14T08:11:11.354Z,68.20
2023-02-14T08:13:43.020Z,68.01
2023-02-14T08:16:17.241Z,68.02
2023-02-14T08:18:50.601Z,68.05
2023-02-14T08:21:22.356Z,68.28
2023-02-14T08:23:55.085Z,67.88
2023-02-14T08:26:28.787Z,67.77
2023-02-14T08:29:01.989Z,68.12
2023-02-14T08:31:37.652Z,67.99
2023-02-14T08:34:10.400Z,68.15
2023-02-14T08:36:43.347Z,68.06
2023-02-14T08:39:15.493Z,67.86
2023-02-14T08:41:50.009Z,67.65
2023-02-14T08:44:24.661Z,67.74
2023-02-14T08:46:56.422Z,67.45
2023-02-14T08:49:28.319Z,67.28
2023-02-14T08:52:01.954Z,67.19
2023-02-14T08:54:35.805Z,67.47
2023-02-14T08:57:07.544Z,67.20
2023-02-14T08:59:39.217Z,67.28
2023-02-14T09:02:17.036Z,67.36
2023-02-14T09:04:48.738Z,67.21
2023-02-14T09:07:20.796Z,66.82
2023-02-14T09:09:52.485Z,67.03
2023-02-14T09:12:26.561Z,67.00
2023-02-14T09:14:58.405Z,67.01
2023-02-14T09:17:30.688Z,66.70
2023-02-14T09:20:02.396Z,66.82
2023-02-14T09:22:34.491Z,66.52
2023-02-14T09:25:07.616Z,66.23
2023-02-14T09:27:42.465Z,66.22
2023-02-14T09:30:17.470Z,66.14
2023-02-14T09:32:52.015Z,66.12
2023-02-14T09:35:47.033Z,66.14
2023-02-14T09:38:23.573Z,65.81
2023-02-14T09:40:57.867Z,65.54
2023-02-14T09:43:55.694Z,65.71
2023-02-14T09:46:31.051Z,65.34
2023-02-14T09:49:03.095Z,65.43
2023-02-14T09:51:36.076Z,65.57
2023-02-14T09:54:20.825Z,65.36
2023-02-14T09:57:23.115Z,65.35
2023-02-14T10:00:18.980Z,64.99
2023-02-14T10:03:05.842Z,64.59
2023-02-14T10:05:48.770Z,64.47
2023-02-14T10:08:45.096Z,64.37
2023-02-14T10:11:23.089Z,64.78
2023-02-14T10:14:05.281Z,64.48
2023-02-14T10:16:43.123Z,64.68
2023-02-14T10:19:28.280Z,64.34
2023-02-14T10:22:02.332Z,64.09
2023-02-14T10:24:40.931Z,64.46
2023-02-14T10:27:24.382Z,63.81
2023-02-14T10:29:56.389Z,63.94
2023-02-14T10:32:48.081Z,63.56
2023-02-14T10:35:22.675Z,63.61
2023-02-14T10:38:17.646Z,63.91
2023-02-14T10:41:13.721Z,63.94
2023-02-14T10:44:03.620Z,63.65
2023-02-14T10:47:04.143Z,63.45
2023-02-14T10:49:59.240Z,63.63
2023-02-14T10:52:59.021Z,63.53
2023-02-14T10:55:36.422Z,63.17
2023-02-14T10:58:13.726Z,63.69
2023-02-14T11:01:02.446Z,63.39
2023-02-14T11:03:37.153Z,63.53
2023-02-14T11:06:10.463Z,63.08
2023-02-14T11:08:42.384Z,63.08
2023-02-14T11:11:21.370Z,62.64
2023-02-14T11:13:53.451Z,62.35
2023-02-14T11:16:37.408Z,62.42
2023-02-14T11:19:15.074Z,62.53
2023-02-14T11:21:50.973Z,62.05
2023-02-14T11:24:33.254Z,61.37
2023-02-14T11:27:18.484Z,61.75
2023-02-14T11:29:53.592Z,61.44
2023-02-14T11:32:28.633Z,61.70
2023-02-14T11:35:05.036Z,61.88
2023-02-14T11:37:49.037Z,61.82
2023-02-14T11:40:36.839Z,61.25
2023-02-14T11:43:14.184Z,61.20
2023-02-14T11:45:48.818Z,60.95
2023-02-14T11:48:37.867Z,60.83
2023-02-14T11:51:18.780Z,60.56
2023-02-14T11:53:55.089Z,60.60
2023-02-14T11:56:48.082Z,60.66
2023-02-14T11:59:25.804Z,61.23
2023-02-14T12:02:01.533Z,60.84
2023-02-14T12:04:46.633Z,60.83
2023-02-14T12:07:25.128Z,60.92
2023-02-14T12:10:27.725Z,60.78
2023-02-14T12:13:11.459Z,60.58
2023-02-14T12:15:43.102Z,60.91
2023-02-14T12:18:52.729Z,60.70
2023-02-14T12:21:30.871Z,61.09
2023-02-14T12:24:20.954Z,60.98
2023-02-14T12:27:13.463Z,60.65
2023-02-14T12:30:00.008Z,60.81
2023-02-14T12:32:32.616Z,60.59
2023-02-14T12:35:13.413Z,60.67
2023-02-14T12:38:03.813Z,60.31
2023-02-14T12:41:05.749Z,59.81
2023-02-14T12:44:12.466Z,60.25
2023-02-14T12:47:07.363Z,60.21
2023-02-14T12:49:57.776Z,60.52
2023-02-14T12:52:51.098Z,60.01
2023-02-14T12:56:07.597Z,60.58
2023-02-14T12:58:45.146Z,61.33
2023-02-14T13:01:24.780Z,61.06
2023-02-14T13:04:34.025Z,61.72
2023-02-14T13:07:14.964Z,61.50
2023-02-14T13:10:31.581Z,61.10
2023-02-14T13:13:07.121Z,60.77
2023-02-14T13:16:09.872Z,60.86
2023-02-14T13:19:02.287Z,60.24
2023-02-14T13:21:37.487Z,60.11
2023-02-14T13:24:21.995Z,60.30
2023-02-14T13:27:00.445Z,59.90
2023-02-14T13:29:43.194Z,59.94
2023-02-14T13:32:21.355Z,60.33
2023-02-14T13:35:00.016Z,60.13
2023-02-14T13:37:33.282Z,60.33
2023-02-14T13:40:17.387Z,60.39
2023-02-14T13:42:49.878Z,60.11
2023-02-14T13:45:39.450Z,60.20
2023-02-14T13:48:22.152Z,60.32
2023-02-14T13:51:05.729Z,60.73
2023-02-14T13:53:44.817Z,60.26
2023-02-14T13:56:16.455Z,60.14
2023-02-14T13:58:59.833Z,60.30
2023-02-14T14:01:41.833Z,59.95
2023-02-14T14:04:30.381Z,59.73
2023-02-14T14:07:05.097Z,59.79
2023-02-14T14:09:43.287Z,59.92
2023-02-14T14:12:27.186Z,59.74
2023-02-14T14:15:05.028Z,60.19
2023-02-14T14:17:46.465Z,60.02
2023-02-14T14:20:20.873Z,60.20
2023-02-14T14:22:58.610Z,60.10
2023-02-14T14:25:42.037Z,60.26
2023-02-14T14:28:20.696Z,59.95
2023-02-14T14:30:55.569Z,59.56
2023-02-14T14:33:35.096Z,59.30
2023-02-14T14:36:10.321Z,59.10
2023-02-14T14:38:53.536Z,58.37
2023-02-14T14:41:31.262Z,58.38
2023-02-14T14:44:05.022Z,58.80
2023-02-14T14:46:41.315Z,58.36
2023-02-14T14:49:16.402Z,58.60
2023-02-14T14:51:48.686Z,58.84
2023-02-14T14:54:25.037Z,58.92
2023-02-14T14:57:01.714Z,58.41
2023-02-14T14:59:40.921Z,59.25
2023-02-14T15:02:27.602Z,59.22
2023-02-14T15:05:32.719Z,59.19
2023-02-14T15:08:30.841Z,60.09
2023-02-14T15:11:47.139Z,60.14
2023-02-14T15:14:24.498Z,60.41
2023-02-14T15:17:06.051Z,60.26
2023-02-14T15:19:43.502Z,60.33
2023-02-14T15:22:26.223Z,60.29
2023-02-14T15:24:58.239Z,60.10
2023-02-14T15:27:30.780Z,60.00
2023-02-14T15:30:09.822Z,60.59
2023-02-14T15:32:44.689Z,60.56
2023-02-14T15:35:17.634Z,60.63
2023-02-14T15:37:56.850Z,60.93
2023-02-14T15:40:35.960Z,60.69
2023-02-14T15:43:23.997Z,60.67
2023-02-14T15:46:03.039Z,60.69
2023-02-14T15:48:37.475Z,60.78
2023-02-14T15:51:22.776Z,61.11
2023-02-14T15:54:25.364Z,60.95
2023-02-14T15:56:59.769Z,61.36
2023-02-14T15:59:41.414Z,61.65
2023-02-14T16:02:36.380Z,61.64
2023-02-14T16:05:17.808Z,62.22
2023-02-14T16:08:22.023Z,62.59
2023-02-14T16:11:05.112Z,62.08
2023-02-14T16:13:42.114Z,62.13
2023-02-14T16:16:15.028Z,62.06
2023-02-14T16:18:49.678Z,62.66
2023-02-14T16:21:33.540Z,62.76
2023-02-14T16:24:14.922Z,62.91
2023-02-14T16:26:53.608Z,63.01
2023-02-14T16:29:37.244Z,63.12
2023-02-14T16:32:36.317Z,63.27
2023-02-14T16:35:31.142Z,63.42
2023-02-14T16:38:15.782Z,63.14
2023-02-14T16:40:56.123Z,63.26
2023-02-14T16:43:36.166Z,63.79
2023-02-14T16:46:15.319Z,63.17
2023-02-14T16:48:52.054Z,63.32
2023-02-14T16:51:28.374Z,63.48
2023-02-14T16:54:04.499Z,63.73
2023-02-14T16:56:49.383Z,63.76
2023-02-14T16:59:26.099Z,63.80
2023-02-14T17:01:58.928Z,63.97
2023-02-14T17:04:30.640Z,63.65
2023-02-14T17:07:05.949Z,63.87
2023-02-14T17:09:42.828Z,63.67
2023-02-14T17:12:41.774Z,63.67
2023-02-14T17:15:19.223Z,63.77
2023-02-14T17:17:55.409Z,63.98
2023-02-14T17:20:36.865Z,63.67
2023-02-14T17:23:09.008Z,64.06
2023-02-14T17:25:50.523Z,64.00
2023-02-14T17:28:26.586Z,64.01
2023-02-14T17:31:01.149Z,63.92
2023-02-14T17:33:36.245Z,63.92
2023-02-14T17:36:12.094Z,63.93
2023-02-14T17:38:43.917Z,64.14
2023-02-14T17:41:15.652Z,64.25
2023-02-14T17:43:49.588Z,64.13
2023-02-14T17:46:24.580Z,64.32
2023-02-14T17:48:57.094Z,64.32
2023-02-14T17:51:30.193Z,64.23
2023-02-14T17:54:01.947Z,64.23
2023-02-14T17:56:35.676Z,64.24
2023-02-14T17:59:07.384Z,64.30
2023-02-14T18:01:39.181Z,64.71
2023-02-14T18:04:10.986Z,64.14
2023-02-14T18:06:43.164Z,64.03
2023-02-14T18:09:18.722Z,64.14
2023-02-14T18:11:50.597Z,64.29
2023-02-14T18:14:22.638Z,64.17
2023-02-14T18:16:54.386Z,64.25
2023-02-14T18:19:26.131Z,70.00
2023-02-14T18:22:00.579Z,65.40
2023-02-14T18:24:32.524Z,64.44
2023-02-14T18:27:06.096Z,64.42
2023-02-14T18:29:39.382Z,64.24
2023-02-14T18:32:12.207Z,64.24
2023-02-14T18:34:43.923Z,64.57
2023-02-14T18:37:17.192Z,64.79
2023-02-14T18:39:48.951Z,64.65
2023-02-14T18:42:24.851Z,64.75
2023-02-14T18:44:56.897Z,65.09
2023-02-14T18:47:28.626Z,64.83
2023-02-14T18:50:06.708Z,64.85
2023-02-14T18:52:39.006Z,64.92
2023-02-14T18:55:11.125Z,65.13
2023-02-14T18:57:42.839Z,65.19
2023-02-14T19:00:19.453Z,65.18
2023-02-14T19:02:54.373Z,65.40
2023-02-14T19:05:26.286Z,65.67
2023-02-14T19:07:59.057Z,65.87
2023-02-14T19:10:31.235Z,65.48
2023-02-14T19:13:03.325Z,65.46
2023-02-14T19:15:35.018Z,65.90
2023-02-14T19:18:06.835Z,65.38
2023-02-14T19:20:38.563Z,65.86
2023-02-14T19:23:10.198Z,66.11
2023-02-14T19:25:43.143Z,66.16
2023-02-14T19:28:21.001Z,65.79
2023-02-14T19:30:53.259Z,65.66
2023-02-14T19:33:25.728Z,65.93
2023-02-14T19:36:07.405Z,65.95
2023-02-14T19:38:46.798Z,66.20
2023-02-14T19:41:31.658Z,66.34
2023-02-14T19:44:06.660Z,66.09
2023-02-14T19:46:38.474Z,66.19
2023-02-14T19:49:16.341Z,65.98
2023-02-14T19:51:49.454Z,65.97
2023-02-14T19:54:28.184Z,66.29
2023-02-14T19:57:00.004Z,65.90
2023-02-14T19:59:32.538Z,65.67
2023-02-14T20:02:12.605Z,66.10
2023-02-14T20:04:44.620Z,66.20
2023-02-14T20:07:19.299Z,66.36
2023-02-14T20:09:50.992Z,66.04
2023-02-14T20:12:22.746Z,66.40
2023-02-14T20:14:54.968Z,66.38
2023-02-14T20:17:26.825Z,66.55
2023-02-14T20:20:01.298Z,66.71
2023-02-14T20:22:38.191Z,66.81
2023-02-14T20:25:11.205Z,66.82
2023-02-14T20:27:43.022Z,66.68
2023-02-14T20:30:20.771Z,66.08
2023-02-14T20:32:55.510Z,66.58
2023-02-14T20:35:27.570Z,66.78
2023-02-14T20:37:59.278Z,66.36
2023-02-14T20:40:43.464Z,66.74
2023-02-14T20:43:15.998Z,66.84
2023-02-14T20:45:48.225Z,67.13
2023-02-14T20:48:20.016Z,66.38
2023-02-14T20:50:51.799Z,66.73
2023-02-14T20:53:24.723Z,66.77
2023-02-14T20:55:59.594Z,66.57
2023-02-14T20:58:39.693Z,66.56
2023-02-14T21:01:23.415Z,67.05
2023-02-14T21:03:55.522Z,67.14
2023-02-14T21:06:30.446Z,67.13
2023-02-14T21:09:05.209Z,67.03
2023-02-14T21:11:36.903Z,67.37
2023-02-14T21:14:12.147Z,66.98
2023-02-14T21:16:44.638Z,67.23
2023-02-14T21:19:17.639Z,66.89
2023-02-14T21:21:49.376Z,66.88
2023-02-14T21:24:21.229Z,66.89
2023-02-14T21:26:52.920Z,67.08
2023-02-14T21:29:25.669Z,66.92
2023-02-14T21:31:57.652Z,67.35
2023-02-14T21:34:29.573Z,67.18
2023-02-14T21:37:01.332Z,67.08
2023-02-14T21:39:35.741Z,66.77
2023-02-14T21:42:11.981Z,66.86
2023-02-14T21:45:03.300Z,66.63
2023-02-14T21:47:44.864Z,66.97
2023-02-14T21:50:31.690Z,66.66
2023-02-14T21:53:03.729Z,66.75
2023-02-14T21:55:38.493Z,67.10
2023-02-14T21:58:10.064Z,67.04
2023-02-14T22:00:48.742Z,66.82
2023-02-14T22:03:27.218Z,67.06
2023-02-14T22:06:07.015Z,66.81
2023-02-14T22:08:42.645Z,67.14
2023-02-14T22:11:18.607Z,66.94
2023-02-14T22:13:50.266Z,67.28
2023-02-14T22:16:23.687Z,66.74
2023-02-14T22:18:55.540Z,67.41
2023-02-14T22:21:33.463Z,67.33
2023-02-14T22:24:08.048Z,67.38
2023-02-14T22:26:43.063Z,67.48
2023-02-14T22:29:17.959Z,67.43
2023-02-14T22:31:49.574Z,67.55
2023-02-14T22:34:21.896Z,67.62
2023-02-14T22:36:53.556Z,67.52
2023-02-14T22:39:50.205Z,67.37
2023-02-14T22:42:21.778Z,67.11
2023-02-14T22:44:53.413Z,67.39
2023-02-14T22:47:25.237Z,67.46
2023-02-14T22:49:56.836Z,67.68
2023-02-14T22:52:37.241Z,67.83
2023-02-14T22:55:08.727Z,67.56
2023-02-14T22:57:40.271Z,67.53
2023-02-14T23:00:14.610Z,67.80
2023-02-14T23:02:46.683Z,67.80
2023-02-14T23:05:21.559Z,67.84
2023-02-14T23:07:53.543Z,67.62
2023-02-14T23:10:25.115Z,67.71
2023-02-14T23:13:19.052Z,67.77
2023-02-14T23:16:12.385Z,67.53
2023-02-14T23:19:02.743Z,67.60
2023-02-14T23:21:52.899Z,67.88
2023-02-14T23:24:24.636Z,68.29
2023-02-14T23:26:56.334Z,68.24
2023-02-14T23:29:32.301Z,67.53
2023-02-14T23:32:07.580Z,68.21
2023-02-14T23:34:40.631Z,67.88
2023-02-14T23:37:12.555Z,67.88
2023-02-14T23:39:44.178Z,67.91
2023-02-14T23:42:16.127Z,68.19
2023-02-14T23:44:50.812Z,68.11
2023-02-14T23:47:22.502Z,68.42
2023-02-14T23:49:54.167Z,68.39
2023-02-14T23:52:28.538Z,68.27
2023-02-14T23:55:00.219Z,67.85
2023-02-14T23:57:31.773Z,67.68
